Terminal Aerodrome Forecast
Issued by NWS

Home | Current Version | Previous Version | Text Only | Print | Product List | Glossary On
Versions: 1 2 3 4 5 6 7 8 9 10 11 12 13 14 15 16 17 18 19 20 21 22 23 24 25 26 27
000
FTUS45 KBOI 242340
TAFMYL
TAF
KMYL 242340Z 2500/2524 VRB06KT P6SM -SHRA SCT015 BKN025 OVC040
     FM250600 VRB05KT 2SM -SHSN BR OVC009
     FM251000 33005KT P6SM VCFG OVC015=

USA.gov is the U.S. government's official web portal to all federal, state and local government web resources and services.